createdAt,value
2019-06-02T00:00:16.115Z,1007.62
2019-06-02T00:01:16.149Z,1007.59
2019-06-02T00:02:16.171Z,1007.63
2019-06-02T00:03:16.190Z,1007.6
2019-06-02T00:04:16.222Z,1007.61
2019-06-02T00:05:16.241Z,1007.62
2019-06-02T00:06:16.263Z,1007.61
2019-06-02T00:07:16.295Z,1007.63
2019-06-02T00:08:16.315Z,1007.64
2019-06-02T00:09:16.347Z,1007.66
2019-06-02T00:10:16.364Z,1007.62
2019-06-02T00:11:16.394Z,1007.6
2019-06-02T00:12:16.420Z,1007.62
2019-06-02T00:13:16.440Z,1007.59
2019-06-02T00:14:28.095Z,1007.58
2019-06-02T00:15:16.500Z,1007.58
2019-06-02T00:16:16.522Z,1007.59
2019-06-02T00:17:16.539Z,1007.6
2019-06-02T00:18:16.563Z,1007.6
2019-06-02T00:19:16.593Z,1007.58
2019-06-02T00:20:16.611Z,1007.58
2019-06-02T00:21:16.637Z,1007.61
2019-06-02T00:22:16.662Z,1007.57
2019-06-02T00:23:16.692Z,1007.61
2019-06-02T00:24:16.714Z,1007.64
2019-06-02T00:25:16.746Z,1007.65
2019-06-02T00:26:16.767Z,1007.66
2019-06-02T00:27:16.786Z,1007.65
2019-06-02T00:28:16.815Z,1007.66
2019-06-02T00:29:16.840Z,1007.66
2019-06-02T00:30:16.867Z,1007.62
2019-06-02T00:31:16.888Z,1007.6
2019-06-02T00:32:16.907Z,1007.62
2019-06-02T00:33:16.932Z,1007.61
2019-06-02T00:34:16.958Z,1007.58
2019-06-02T00:35:16.981Z,1007.58
2019-06-02T00:36:17.007Z,1007.56
2019-06-02T00:37:17.032Z,1007.57
2019-06-02T00:38:17.055Z,1007.55
2019-06-02T00:39:17.086Z,1007.58
2019-06-02T00:40:17.109Z,1007.58
2019-06-02T00:41:17.138Z,1007.54
2019-06-02T00:42:17.152Z,1007.62
2019-06-02T00:43:17.180Z,1007.63
2019-06-02T00:44:17.208Z,1007.65
2019-06-02T00:45:17.231Z,1007.68
2019-06-02T00:46:17.251Z,1007.68
2019-06-02T00:47:17.279Z,1007.7
2019-06-02T00:48:17.304Z,1007.7
2019-06-02T00:49:17.323Z,1007.68
2019-06-02T00:50:17.351Z,1007.65
2019-06-02T00:51:17.375Z,1007.63
2019-06-02T00:52:17.403Z,1007.64
2019-06-02T00:53:17.419Z,1007.64
2019-06-02T00:54:17.447Z,1007.62
2019-06-02T00:55:17.483Z,1007.63
2019-06-02T00:56:17.497Z,1007.63
2019-06-02T00:57:17.517Z,1007.65
2019-06-02T00:58:17.551Z,1007.61
2019-06-02T00:59:17.564Z,1007.63
2019-06-02T01:00:17.589Z,1007.63
2019-06-02T01:01:17.614Z,1007.58
2019-06-02T01:02:17.643Z,1007.56
2019-06-02T01:03:17.668Z,1007.59
2019-06-02T01:04:17.687Z,1007.58
2019-06-02T01:05:17.716Z,1007.55
2019-06-02T01:06:17.741Z,1007.57
2019-06-02T01:07:17.763Z,1007.58
2019-06-02T01:08:17.792Z,1007.55
2019-06-02T01:09:17.812Z,1007.53
2019-06-02T01:10:17.834Z,1007.52
2019-06-02T01:11:17.857Z,1007.53
2019-06-02T01:12:17.920Z,1007.55
2019-06-02T01:13:17.903Z,1007.53
2019-06-02T01:14:17.931Z,1007.52
2019-06-02T01:15:17.950Z,1007.51
2019-06-02T01:16:17.975Z,1007.55
2019-06-02T01:17:17.998Z,1007.51
2019-06-02T01:18:18.028Z,1007.5
2019-06-02T01:19:18.045Z,1007.49
2019-06-02T01:20:18.071Z,1007.5
2019-06-02T01:21:18.098Z,1007.5
2019-06-02T01:22:18.127Z,1007.48
2019-06-02T01:23:18.141Z,1007.48
2019-06-02T01:24:18.169Z,1007.47
2019-06-02T01:25:18.191Z,1007.48
2019-06-02T01:26:18.217Z,1007.49
2019-06-02T01:27:18.243Z,1007.46
2019-06-02T01:28:18.259Z,1007.49
2019-06-02T01:29:18.292Z,1007.46
2019-06-02T01:30:18.309Z,1007.47
2019-06-02T01:31:18.336Z,1007.44
2019-06-02T01:32:18.371Z,1007.42
2019-06-02T01:33:18.390Z,1007.44
2019-06-02T01:34:18.413Z,1007.45
2019-06-02T01:35:18.442Z,1007.42
2019-06-02T01:36:18.455Z,1007.45
2019-06-02T01:37:18.480Z,1007.43
2019-06-02T01:38:18.497Z,1007.44
2019-06-02T01:39:18.521Z,1007.39
2019-06-02T01:40:18.550Z,1007.38
2019-06-02T01:41:18.573Z,1007.35
2019-06-02T01:42:18.596Z,1007.36
2019-06-02T01:43:18.620Z,1007.38
2019-06-02T01:44:18.649Z,1007.4
2019-06-02T01:45:26.841Z,1007.37
2019-06-02T01:46:18.693Z,1007.37
2019-06-02T01:47:18.710Z,1007.37
2019-06-02T01:48:18.738Z,1007.35
2019-06-02T01:49:18.756Z,1007.35
2019-06-02T01:50:18.781Z,1007.39
2019-06-02T01:51:18.804Z,1007.35
2019-06-02T01:52:18.833Z,1007.38
2019-06-02T01:53:18.858Z,1007.34
2019-06-02T01:54:18.881Z,1007.37
2019-06-02T01:55:18.897Z,1007.35
2019-06-02T01:56:18.931Z,1007.36
2019-06-02T01:57:18.949Z,1007.37
2019-06-02T01:58:18.969Z,1007.37
2019-06-02T01:59:18.991Z,1007.38
2019-06-02T02:00:19.020Z,1007.33
2019-06-02T02:01:19.039Z,1007.36
2019-06-02T02:02:19.064Z,1007.39
2019-06-02T02:03:19.085Z,1007.38
2019-06-02T02:04:19.115Z,1007.38
2019-06-02T02:05:19.131Z,1007.39
2019-06-02T02:06:19.157Z,1007.39
2019-06-02T02:07:19.183Z,1007.38
2019-06-02T02:08:19.209Z,1007.42
2019-06-02T02:09:19.230Z,1007.44
2019-06-02T02:10:19.248Z,1007.43
2019-06-02T02:11:19.276Z,1007.42
2019-06-02T02:12:19.301Z,1007.43
2019-06-02T02:13:19.324Z,1007.43
2019-06-02T02:14:19.345Z,1007.41
2019-06-02T02:15:19.365Z,1007.44
2019-06-02T02:16:19.388Z,1007.42
2019-06-02T02:17:19.411Z,1007.39
2019-06-02T02:18:19.434Z,1007.38
2019-06-02T02:19:19.463Z,1007.38
2019-06-02T02:20:19.481Z,1007.35
2019-06-02T02:21:19.509Z,1007.39
2019-06-02T02:22:19.532Z,1007.38
2019-06-02T02:23:19.569Z,1007.36
2019-06-02T02:24:19.584Z,1007.34
2019-06-02T02:25:19.602Z,1007.33
2019-06-02T02:26:19.626Z,1007.36
2019-06-02T02:27:19.642Z,1007.34
2019-06-02T02:28:19.670Z,1007.35
2019-06-02T02:29:19.693Z,1007.33
2019-06-02T02:30:19.715Z,1007.37
2019-06-02T02:31:19.739Z,1007.37
2019-06-02T02:32:19.770Z,1007.33
2019-06-02T02:33:19.801Z,1007.34
2019-06-02T02:34:19.814Z,1007.35
2019-06-02T02:35:19.831Z,1007.37
2019-06-02T02:36:19.853Z,1007.37
2019-06-02T02:37:19.879Z,1007.37
2019-06-02T02:38:19.904Z,1007.36
2019-06-02T02:39:19.924Z,1007.35
2019-06-02T02:40:19.952Z,1007.35
2019-06-02T02:41:19.966Z,1007.34
2019-06-02T02:42:19.990Z,1007.38
2019-06-02T02:43:20.029Z,1007.37
2019-06-02T02:44:20.042Z,1007.35
2019-06-02T02:45:20.065Z,1007.33
2019-06-02T02:46:20.089Z,1007.33
2019-06-02T02:47:20.103Z,1007.31
2019-06-02T02:48:20.135Z,1007.3
2019-06-02T02:49:20.155Z,1007.29
2019-06-02T02:50:20.175Z,1007.29
2019-06-02T02:51:20.198Z,1007.32
2019-06-02T02:52:20.218Z,1007.32
2019-06-02T02:53:20.247Z,1007.32
2019-06-02T02:54:20.268Z,1007.36
2019-06-02T02:55:20.296Z,1007.35
2019-06-02T02:56:20.308Z,1007.36
2019-06-02T02:57:20.341Z,1007.35
2019-06-02T02:58:20.359Z,1007.37
2019-06-02T02:59:20.377Z,1007.35
2019-06-02T03:00:20.408Z,1007.36
2019-06-02T03:01:20.432Z,1007.36
2019-06-02T03:02:20.446Z,1007.33
2019-06-02T03:03:20.468Z,1007.35
2019-06-02T03:04:20.497Z,1007.33
2019-06-02T03:05:20.520Z,1007.39
2019-06-02T03:06:20.541Z,1007.38
2019-06-02T03:07:20.559Z,1007.39
2019-06-02T03:08:20.586Z,1007.34
2019-06-02T03:09:20.610Z,1007.32
2019-06-02T03:10:20.627Z,1007.34
2019-06-02T03:11:20.655Z,1007.32
2019-06-02T03:12:20.677Z,1007.29
2019-06-02T03:13:20.701Z,1007.31
2019-06-02T03:14:20.724Z,1007.32
2019-06-02T03:15:20.741Z,1007.32
2019-06-02T03:16:32.074Z,1007.33
2019-06-02T03:17:20.790Z,1007.3
2019-06-02T03:18:20.813Z,1007.28
2019-06-02T03:19:20.835Z,1007.32
2019-06-02T03:20:20.858Z,1007.29
2019-06-02T03:21:20.882Z,1007.31
2019-06-02T03:22:20.899Z,1007.31
2019-06-02T03:23:20.925Z,1007.3
2019-06-02T03:24:20.943Z,1007.32
2019-06-02T03:25:20.972Z,1007.29
2019-06-02T03:26:20.991Z,1007.28
2019-06-02T03:27:21.017Z,1007.3
2019-06-02T03:28:21.054Z,1007.28
2019-06-02T03:29:21.066Z,1007.26
2019-06-02T03:30:21.101Z,1007.25
2019-06-02T03:31:21.107Z,1007.25
2019-06-02T03:32:21.147Z,1007.26
2019-06-02T03:33:21.153Z,1007.26
2019-06-02T03:34:21.179Z,1007.24
2019-06-02T03:35:21.202Z,1007.25
2019-06-02T03:36:21.214Z,1007.24
2019-06-02T03:37:21.243Z,1007.28
2019-06-02T03:38:21.265Z,1007.21
2019-06-02T03:39:21.280Z,1007.24
2019-06-02T03:40:21.305Z,1007.24
2019-06-02T03:41:21.332Z,1007.22
2019-06-02T03:42:21.348Z,1007.23
2019-06-02T03:43:21.372Z,1007.22
2019-06-02T03:44:21.399Z,1007.23
2019-06-02T03:45:21.423Z,1007.2
2019-06-02T03:46:21.445Z,1007.18
2019-06-02T03:47:21.464Z,1007.17
2019-06-02T03:48:21.490Z,1007.14
2019-06-02T03:49:22.157Z,1007.16
2019-06-02T03:50:21.538Z,1007.14
2019-06-02T03:51:21.557Z,1007.16
2019-06-02T03:52:21.577Z,1007.15
2019-06-02T03:53:21.595Z,1007.17
2019-06-02T03:54:21.629Z,1007.14
2019-06-02T03:55:21.645Z,1007.16
2019-06-02T03:56:21.669Z,1007.12
2019-06-02T03:57:21.696Z,1007.15
2019-06-02T03:58:21.707Z,1007.13
2019-06-02T03:59:21.730Z,1007.14
2019-06-02T04:00:21.753Z,1007.16
2019-06-02T04:01:21.779Z,1007.17
2019-06-02T04:02:21.802Z,1007.12
2019-06-02T04:03:21.819Z,1007.14
2019-06-02T04:04:21.846Z,1007.13
2019-06-02T04:05:21.868Z,1007.15
2019-06-02T04:06:21.890Z,1007.16
2019-06-02T04:07:21.916Z,1007.16
2019-06-02T04:08:21.936Z,1007.15
2019-06-02T04:09:21.959Z,1007.16
2019-06-02T04:10:21.979Z,1007.17
2019-06-02T04:11:22.004Z,1007.17
2019-06-02T04:12:22.021Z,1007.16
2019-06-02T04:13:22.043Z,1007.14
2019-06-02T04:14:22.071Z,1007.14
2019-06-02T04:15:22.092Z,1007.16
2019-06-02T04:16:22.111Z,1007.14
2019-06-02T04:17:22.148Z,1007.11
2019-06-02T04:18:22.164Z,1007.16
2019-06-02T04:19:22.178Z,1007.15
2019-06-02T04:20:22.198Z,1007.12
2019-06-02T04:21:22.232Z,1007.11
2019-06-02T04:22:22.244Z,1007.13
2019-06-02T04:23:22.270Z,1007.14
2019-06-02T04:24:22.296Z,1007.15
2019-06-02T04:25:22.308Z,1007.14
2019-06-02T04:26:22.333Z,1007.17
2019-06-02T04:27:22.372Z,1007.13
2019-06-02T04:28:22.382Z,1007.15
2019-06-02T04:29:22.404Z,1007.14
2019-06-02T04:30:22.421Z,1007.14
2019-06-02T04:31:23.232Z,1007.17
2019-06-02T04:32:22.469Z,1007.15
2019-06-02T04:33:22.488Z,1007.19
2019-06-02T04:34:22.510Z,1007.2
2019-06-02T04:35:22.536Z,1007.2
2019-06-02T04:36:22.562Z,1007.17
2019-06-02T04:37:22.580Z,1007.16
2019-06-02T04:38:22.627Z,1007.17
2019-06-02T04:39:22.630Z,1007.2
2019-06-02T04:40:22.642Z,1007.21
2019-06-02T04:41:22.666Z,1007.19
2019-06-02T04:42:22.699Z,1007.19
2019-06-02T04:43:23.622Z,1007.19
2019-06-02T04:44:22.733Z,1007.19
2019-06-02T04:45:22.764Z,1007.18
2019-06-02T04:46:22.777Z,1007.11
2019-06-02T04:47:35.443Z,1007.15
2019-06-02T04:48:22.989Z,1007.15
2019-06-02T04:49:22.855Z,1007.1
2019-06-02T04:50:22.875Z,1007.19
2019-06-02T04:51:22.892Z,1007.17
2019-06-02T04:52:22.909Z,1007.18
2019-06-02T04:53:22.941Z,1007.18
2019-06-02T04:54:22.959Z,1007.19
2019-06-02T04:55:22.988Z,1007.22
2019-06-02T04:56:22.999Z,1007.16
2019-06-02T04:57:23.025Z,1007.18
2019-06-02T04:58:23.069Z,1007.22
2019-06-02T04:59:23.069Z,1007.19
2019-06-02T05:00:23.114Z,1007.21
2019-06-02T05:01:23.114Z,1007.23
2019-06-02T05:02:23.132Z,1007.22
2019-06-02T05:03:24.948Z,1007.23
2019-06-02T05:04:23.186Z,1007.23
2019-06-02T05:05:23.243Z,1007.24
2019-06-02T05:06:23.224Z,1007.24
2019-06-02T05:07:23.249Z,1007.29
2019-06-02T05:08:23.270Z,1007.29
2019-06-02T05:09:23.287Z,1007.28
2019-06-02T05:10:23.329Z,1007.25
2019-06-02T05:11:23.332Z,1007.26
2019-06-02T05:12:23.357Z,1007.27
2019-06-02T05:13:23.375Z,1007.26
2019-06-02T05:14:23.396Z,1007.23
2019-06-02T05:15:23.421Z,1007.26
2019-06-02T05:16:23.442Z,1007.23
2019-06-02T05:17:23.463Z,1007.23
2019-06-02T05:18:23.492Z,1007.19
2019-06-02T05:19:23.556Z,1007.18
2019-06-02T05:20:23.529Z,1007.2
2019-06-02T05:21:23.557Z,1007.19
2019-06-02T05:22:23.581Z,1007.16
2019-06-02T05:23:23.602Z,1007.15
2019-06-02T05:24:23.629Z,1007.21
2019-06-02T05:25:23.644Z,1007.2
2019-06-02T05:26:23.665Z,1007.2
2019-06-02T05:27:23.693Z,1007.23
2019-06-02T05:28:23.715Z,1007.18
2019-06-02T05:29:23.730Z,1007.22
2019-06-02T05:30:23.755Z,1007.23
2019-06-02T05:31:23.774Z,1007.18
2019-06-02T05:32:23.811Z,1007.22
2019-06-02T05:33:23.826Z,1007.23
2019-06-02T05:34:23.846Z,1007.2
2019-06-02T05:35:23.864Z,1007.22
2019-06-02T05:36:23.891Z,1007.19
2019-06-02T05:37:23.913Z,1007.21
2019-06-02T05:38:23.934Z,1007.21
2019-06-02T05:39:23.957Z,1007.2
2019-06-02T05:40:23.979Z,1007.18
2019-06-02T05:41:24.004Z,1007.2
2019-06-02T05:42:24.022Z,1007.2
2019-06-02T05:43:24.045Z,1007.2
2019-06-02T05:44:24.071Z,1007.23
2019-06-02T05:45:24.090Z,1007.23
2019-06-02T05:46:24.108Z,1007.28
2019-06-02T05:47:24.130Z,1007.24
2019-06-02T05:48:24.153Z,1007.25
2019-06-02T05:49:24.179Z,1007.24
2019-06-02T05:50:24.204Z,1007.24
2019-06-02T05:51:24.266Z,1007.22
2019-06-02T05:52:24.242Z,1007.24
2019-06-02T05:53:24.263Z,1007.22
2019-06-02T05:54:27.806Z,1007.21
2019-06-02T05:55:24.312Z,1007.22
2019-06-02T05:56:24.336Z,1007.2
2019-06-02T05:57:24.358Z,1007.21
2019-06-02T05:58:24.379Z,1007.2
2019-06-02T05:59:24.405Z,1007.18
2019-06-02T06:00:24.421Z,1007.17
2019-06-02T06:01:24.448Z,1007.16
2019-06-02T06:02:24.468Z,1007.16
2019-06-02T06:03:24.488Z,1007.15
2019-06-02T06:04:24.516Z,1007.17
2019-06-02T06:05:24.531Z,1007.17
2019-06-02T06:06:24.565Z,1007.19
2019-06-02T06:07:24.598Z,1007.18
2019-06-02T06:08:24.597Z,1007.18
2019-06-02T06:10:53.379Z,1007.14
2019-06-02T06:11:53.645Z,1007.13
2019-06-02T06:12:53.418Z,1007.14
2019-06-02T06:13:53.511Z,1007.13
2019-06-02T06:14:53.462Z,1007.15
2019-06-02T06:15:56.275Z,1007.17
2019-06-02T06:16:53.647Z,1007.15
2019-06-02T06:17:54.022Z,1007.17
2019-06-02T06:18:53.739Z,1007.12
2019-06-02T06:19:53.924Z,1007.15
2019-06-02T06:20:54.083Z,1007.15
2019-06-02T06:21:54.484Z,1007.15
2019-06-02T06:22:54.137Z,1007.16
2019-06-02T06:23:54.575Z,1007.14
2019-06-02T06:24:54.307Z,1007.16
2019-06-02T06:25:54.741Z,1007.18
2019-06-02T06:26:54.449Z,1007.18
2019-06-02T06:27:55.275Z,1007.18
2019-06-02T06:28:55.267Z,1007.15
2019-06-02T06:29:54.861Z,1007.16
2019-06-02T06:30:55.111Z,1007.18
2019-06-02T06:31:55.191Z,1007.16
2019-06-02T06:32:53.879Z,1007.15
2019-06-02T06:33:53.893Z,1007.15
2019-06-02T06:34:53.917Z,1007.12
2019-06-02T06:35:53.945Z,1007.15
2019-06-02T06:36:53.958Z,1007.16
2019-06-02T06:37:54.008Z,1007.14
2019-06-02T06:39:05.297Z,1007.17
2019-06-02T06:39:54.127Z,1007.2
2019-06-02T06:40:54.813Z,1007.22
2019-06-02T06:41:54.589Z,1007.18
2019-06-02T06:42:54.410Z,1007.22
2019-06-02T06:43:54.500Z,1007.19
2019-06-02T06:44:54.541Z,1007.24
2019-06-02T06:45:54.687Z,1007.25
2019-06-02T06:46:54.186Z,1007.22
2019-06-02T06:47:54.208Z,1007.27
2019-06-02T06:48:54.237Z,1007.25
2019-06-02T06:49:54.255Z,1007.26
2019-06-02T06:50:54.288Z,1007.21
2019-06-02T06:51:54.456Z,1007.21
2019-06-02T06:52:54.527Z,1007.23
2019-06-02T06:53:54.685Z,1007.22
2019-06-02T06:54:54.769Z,1007.24
2019-06-02T06:55:54.670Z,1007.27
2019-06-02T06:56:54.693Z,1007.23
2019-06-02T06:57:55.472Z,1007.21
2019-06-02T06:58:55.258Z,1007.22
2019-06-02T06:59:55.750Z,1007.22
2019-06-02T07:00:55.551Z,1007.21
2019-06-02T07:01:54.534Z,1007.25
2019-06-02T07:02:55.218Z,1007.26
2019-06-02T07:03:54.581Z,1007.26
2019-06-02T07:04:55.222Z,1007.27
2019-06-02T07:05:55.383Z,1007.28
2019-06-02T07:06:55.197Z,1007.24
2019-06-02T07:07:55.837Z,1007.27
2019-06-02T07:08:55.357Z,1007.26
2019-06-02T07:09:54.759Z,1007.25
2019-06-02T07:10:54.963Z,1007.23
2019-06-02T07:11:54.855Z,1007.21
2019-06-02T07:12:55.186Z,1007.18
2019-06-02T07:13:55.238Z,1007.17
2019-06-02T07:14:55.430Z,1007.18
2019-06-02T07:15:55.448Z,1007.16
2019-06-02T07:16:55.620Z,1007.15
2019-06-02T07:17:56.413Z,1007.19
2019-06-02T07:19:07.587Z,1007.18
2019-06-02T07:19:55.782Z,1007.17
2019-06-02T07:20:55.965Z,1007.17
2019-06-02T07:21:56.095Z,1007.16
2019-06-02T07:22:56.228Z,1007.18
2019-06-02T07:23:56.273Z,1007.16
2019-06-02T07:24:55.057Z,1007.17
2019-06-02T07:25:55.085Z,1007.18
2019-06-02T07:26:55.118Z,1007.16
2019-06-02T07:27:55.133Z,1007.15
2019-06-02T07:28:55.151Z,1007.16
2019-06-02T07:29:55.173Z,1007.16
2019-06-02T07:30:55.201Z,1007.13
2019-06-02T07:31:55.224Z,1007.12
2019-06-02T07:32:55.251Z,1007.16
2019-06-02T07:33:55.267Z,1007.1
2019-06-02T07:34:55.295Z,1007.1
2019-06-02T07:35:55.355Z,1007.08
2019-06-02T07:36:55.343Z,1007.09
2019-06-02T07:37:55.366Z,1007.1
2019-06-02T07:38:55.559Z,1007.12
2019-06-02T07:39:55.603Z,1007.09
2019-06-02T07:40:55.437Z,1007.09
2019-06-02T07:41:55.458Z,1007.07
2019-06-02T07:42:55.484Z,1007.09
2019-06-02T07:43:55.511Z,1007.1
2019-06-02T07:44:55.556Z,1007.13
2019-06-02T07:45:55.552Z,1007.15
2019-06-02T07:46:55.580Z,1007.17
2019-06-02T07:47:55.601Z,1007.11
2019-06-02T07:48:55.623Z,1007.1
2019-06-02T07:49:55.647Z,1007.14
2019-06-02T07:50:55.674Z,1007.12
2019-06-02T07:51:55.697Z,1007.11
2019-06-02T07:52:55.715Z,1007.13
2019-06-02T07:53:55.740Z,1007.14
2019-06-02T07:54:55.762Z,1007.14
2019-06-02T07:55:55.786Z,1007.1
2019-06-02T07:56:55.819Z,1007.07
2019-06-02T07:57:55.839Z,1007.11
2019-06-02T07:58:55.858Z,1007.11
2019-06-02T07:59:55.897Z,1007.09
2019-06-02T08:00:55.917Z,1007.06
2019-06-02T08:01:55.932Z,1007.08
2019-06-02T08:02:55.963Z,1007.07
2019-06-02T08:03:55.979Z,1007.04
2019-06-02T08:04:56.008Z,1007.04
2019-06-02T08:05:56.032Z,1007.04
2019-06-02T08:06:56.058Z,1007.05
2019-06-02T08:07:56.077Z,1007.03
2019-06-02T08:08:56.107Z,1007.02
2019-06-02T08:09:56.132Z,1007.03
2019-06-02T08:10:56.152Z,1007.03
2019-06-02T08:11:56.178Z,1007.03
2019-06-02T08:12:56.208Z,1007.06
2019-06-02T08:13:56.233Z,1007.05
2019-06-02T08:14:56.254Z,1007
2019-06-02T08:15:56.279Z,1006.98
2019-06-02T08:16:56.303Z,1007.03
2019-06-02T08:17:56.324Z,1007.03
2019-06-02T08:18:56.352Z,1007.04
2019-06-02T08:19:56.386Z,1007.01
2019-06-02T08:20:56.404Z,1007.02
2019-06-02T08:21:56.428Z,1007.02
2019-06-02T08:22:56.453Z,1007.02
2019-06-02T08:23:56.478Z,1007.02
2019-06-02T08:24:56.508Z,1007.03
2019-06-02T08:25:56.534Z,1007.03
2019-06-02T08:26:56.548Z,1007
2019-06-02T08:27:56.579Z,1007.01
2019-06-02T08:28:56.601Z,1007.02
2019-06-02T08:29:56.632Z,1007.01
2019-06-02T08:30:56.648Z,1006.98
2019-06-02T08:31:56.676Z,1006.99
2019-06-02T08:32:56.712Z,1006.99
2019-06-02T08:33:56.724Z,1007.01
2019-06-02T08:34:56.759Z,1006.99
2019-06-02T08:35:56.783Z,1006.99
2019-06-02T08:36:56.812Z,1006.98
2019-06-02T08:37:56.833Z,1006.94
2019-06-02T08:38:56.856Z,1006.97
2019-06-02T08:39:56.880Z,1006.92
2019-06-02T08:40:56.908Z,1006.92
2019-06-02T08:41:59.901Z,1006.93
2019-06-02T08:42:56.960Z,1006.92
2019-06-02T08:43:56.984Z,1006.93
2019-06-02T08:44:57.007Z,1006.94
2019-06-02T08:45:57.031Z,1006.91
2019-06-02T08:46:57.064Z,1006.92
2019-06-02T08:47:57.091Z,1006.89
2019-06-02T08:48:57.109Z,1006.91
2019-06-02T08:50:06.422Z,1006.93
2019-06-02T08:50:57.167Z,1006.88
2019-06-02T08:51:57.193Z,1006.86
2019-06-02T08:52:57.217Z,1006.9
2019-06-02T08:53:57.248Z,1006.89
2019-06-02T08:54:57.269Z,1006.9
2019-06-02T08:55:57.300Z,1006.92
2019-06-02T08:56:57.328Z,1006.85
2019-06-02T08:57:57.352Z,1006.86
2019-06-02T08:58:57.381Z,1006.89
2019-06-02T08:59:57.406Z,1006.84
2019-06-02T09:00:57.440Z,1006.84
2019-06-02T09:01:57.458Z,1006.86
2019-06-02T09:02:57.478Z,1006.85
2019-06-02T09:03:57.506Z,1006.81
2019-06-02T09:04:57.540Z,1006.81
2019-06-02T09:05:57.566Z,1006.84
2019-06-02T09:06:57.587Z,1006.84
2019-06-02T09:07:57.624Z,1006.81
2019-06-02T09:08:57.646Z,1006.83
2019-06-02T09:09:57.668Z,1006.76
2019-06-02T09:10:57.694Z,1006.8
2019-06-02T09:11:57.721Z,1006.76
2019-06-02T09:12:57.755Z,1006.76
2019-06-02T09:13:57.776Z,1006.75
2019-06-02T09:14:57.826Z,1006.7
2019-06-02T09:15:57.835Z,1006.76
2019-06-02T09:16:57.861Z,1006.73
2019-06-02T09:17:57.889Z,1006.73
2019-06-02T09:18:57.914Z,1006.76
2019-06-02T09:19:57.944Z,1006.74
2019-06-02T09:20:57.967Z,1006.73
2019-06-02T09:21:58.012Z,1006.74
2019-06-02T09:22:58.026Z,1006.74
2019-06-02T09:23:58.051Z,1006.77
2019-06-02T09:24:58.126Z,1006.7
2019-06-02T09:25:58.105Z,1006.69
2019-06-02T09:26:58.133Z,1006.69
2019-06-02T09:27:58.166Z,1006.71
2019-06-02T09:28:58.187Z,1006.69
2019-06-02T09:29:58.223Z,1006.69
2019-06-02T09:30:58.244Z,1006.65
2019-06-02T09:31:58.274Z,1006.64
2019-06-02T09:32:58.307Z,1006.67
2019-06-02T09:33:58.329Z,1006.7
2019-06-02T09:34:58.362Z,1006.65
2019-06-02T09:35:58.383Z,1006.68
2019-06-02T09:36:58.417Z,1006.66
2019-06-02T09:37:58.441Z,1006.67
2019-06-02T09:38:58.468Z,1006.64
2019-06-02T09:39:58.496Z,1006.63
2019-06-02T09:40:58.525Z,1006.66
2019-06-02T09:41:58.561Z,1006.66
2019-06-02T09:42:58.593Z,1006.67
2019-06-02T09:43:58.611Z,1006.66
2019-06-02T09:44:58.647Z,1006.7
2019-06-02T09:45:58.674Z,1006.64
2019-06-02T09:46:58.705Z,1006.65
2019-06-02T09:47:58.727Z,1006.62
2019-06-02T09:48:58.756Z,1006.62
2019-06-02T09:49:58.790Z,1006.65
2019-06-02T09:50:58.903Z,1006.61
2019-06-02T09:51:58.848Z,1006.61
2019-06-02T09:52:58.877Z,1006.67
2019-06-02T09:53:58.904Z,1006.63
2019-06-02T09:54:58.930Z,1006.59
2019-06-02T09:55:58.965Z,1006.62
2019-06-02T09:56:58.994Z,1006.61
2019-06-02T09:57:59.024Z,1006.63
2019-06-02T09:58:59.050Z,1006.59
2019-06-02T09:59:59.076Z,1006.55
2019-06-02T10:00:59.108Z,1006.58
2019-06-02T10:01:59.134Z,1006.56
2019-06-02T10:02:59.165Z,1006.55
2019-06-02T10:03:59.196Z,1006.54
2019-06-02T10:04:59.229Z,1006.53
2019-06-02T10:05:59.252Z,1006.52
2019-06-02T10:06:59.286Z,1006.56
2019-06-02T10:07:59.311Z,1006.59
2019-06-02T10:08:59.340Z,1006.53
2019-06-02T10:09:59.372Z,1006.54
2019-06-02T10:10:59.411Z,1006.52
2019-06-02T10:11:59.437Z,1006.5
2019-06-02T10:12:59.466Z,1006.48
2019-06-02T10:13:59.494Z,1006.49
2019-06-02T10:14:59.524Z,1006.53
2019-06-02T10:15:59.557Z,1006.49
2019-06-02T10:16:59.589Z,1006.48
2019-06-02T10:17:59.612Z,1006.49
2019-06-02T10:18:59.660Z,1006.49
2019-06-02T10:19:59.677Z,1006.46
2019-06-02T10:21:04.353Z,1006.41
2019-06-02T10:21:59.732Z,1006.38
2019-06-02T10:22:59.763Z,1006.4
2019-06-02T10:23:59.801Z,1006.38
2019-06-02T10:24:59.829Z,1006.39
2019-06-02T10:25:59.860Z,1006.39
2019-06-02T10:26:59.893Z,1006.36
2019-06-02T10:27:59.929Z,1006.4
2019-06-02T10:28:59.952Z,1006.32
2019-06-02T10:29:59.977Z,1006.38
2019-06-02T10:31:00.008Z,1006.33
2019-06-02T10:32:00.038Z,1006.37
2019-06-02T10:33:00.074Z,1006.37
2019-06-02T10:34:00.106Z,1006.28
2019-06-02T10:35:00.136Z,1006.28
2019-06-02T10:36:00.165Z,1006.26
2019-06-02T10:37:00.193Z,1006.27
2019-06-02T10:38:00.229Z,1006.28
2019-06-02T10:39:00.255Z,1006.26
2019-06-02T10:40:00.294Z,1006.23
2019-06-02T10:41:00.323Z,1006.24
2019-06-02T10:42:00.360Z,1006.24
2019-06-02T10:43:00.387Z,1006.22
2019-06-02T10:44:00.417Z,1006.3
2019-06-02T10:45:00.444Z,1006.3
2019-06-02T10:46:00.477Z,1006.26
2019-06-02T10:47:00.507Z,1006.28
2019-06-02T10:48:00.539Z,1006.27
2019-06-02T10:49:00.574Z,1006.19
2019-06-02T10:50:00.612Z,1006.2
2019-06-02T10:51:00.637Z,1006.2
2019-06-02T10:52:00.671Z,1006.2
2019-06-02T10:53:00.697Z,1006.16
2019-06-02T10:54:00.737Z,1006.17
2019-06-02T10:55:00.761Z,1006.18
2019-06-02T10:56:00.798Z,1006.2
2019-06-02T10:57:00.825Z,1006.24
2019-06-02T10:58:00.862Z,1006.18
2019-06-02T10:59:00.890Z,1006.14
2019-06-02T11:00:04.061Z,1006.14
2019-06-02T11:01:00.959Z,1006.08
2019-06-02T11:02:00.988Z,1006.07
2019-06-02T11:03:01.020Z,1006.11
2019-06-02T11:04:01.065Z,1006.09
2019-06-02T11:05:01.082Z,1006.07
2019-06-02T11:06:01.135Z,1006.06
2019-06-02T11:07:02.727Z,1006.09
2019-06-02T11:08:01.191Z,1006.11
2019-06-02T11:09:01.225Z,1006.13
2019-06-02T11:10:01.740Z,1006.1
2019-06-02T11:11:01.285Z,1006.07
2019-06-02T11:12:01.316Z,1006.07
2019-06-02T11:13:01.344Z,1006.04
2019-06-02T11:14:01.383Z,1006.04
2019-06-02T11:15:01.410Z,1006.04
2019-06-02T11:16:01.450Z,1006
2019-06-02T11:17:01.481Z,1006
2019-06-02T11:18:01.517Z,1006.01
2019-06-02T11:19:01.689Z,1005.93
2019-06-02T11:20:01.576Z,1005.95
2019-06-02T11:21:01.633Z,1005.98
2019-06-02T11:22:01.646Z,1005.97
2019-06-02T11:23:02.088Z,1005.92
2019-06-02T11:24:01.713Z,1005.85
2019-06-02T11:25:01.748Z,1005.91
2019-06-02T11:26:01.772Z,1005.87
2019-06-02T11:27:01.810Z,1005.88
2019-06-02T11:28:01.863Z,1005.86
2019-06-02T11:29:01.879Z,1005.85
2019-06-02T11:30:01.909Z,1005.79
2019-06-02T11:31:01.948Z,1005.77
2019-06-02T11:32:01.980Z,1005.73
2019-06-02T11:33:02.044Z,1005.68
2019-06-02T11:34:02.068Z,1005.7
2019-06-02T11:35:02.179Z,1005.75
2019-06-02T11:36:02.112Z,1005.71
2019-06-02T11:37:02.146Z,1005.66
2019-06-02T11:38:02.186Z,1005.62
2019-06-02T11:39:02.212Z,1005.66
2019-06-02T11:40:02.262Z,1005.65
2019-06-02T11:41:02.281Z,1005.62
2019-06-02T11:42:02.314Z,1005.61
2019-06-02T11:43:02.353Z,1005.62
2019-06-02T11:44:02.386Z,1005.57
2019-06-02T11:45:05.075Z,1005.57
2019-06-02T11:46:02.450Z,1005.55
2019-06-02T11:47:02.491Z,1005.53
2019-06-02T11:48:02.523Z,1005.49
2019-06-02T11:49:02.552Z,1005.49
2019-06-02T11:50:02.589Z,1005.48
2019-06-02T11:51:02.620Z,1005.49
2019-06-02T11:52:02.660Z,1005.41
2019-06-02T11:53:02.696Z,1005.49
2019-06-02T11:54:02.735Z,1005.48
2019-06-02T11:55:02.759Z,1005.41
2019-06-02T11:56:02.799Z,1005.38
2019-06-02T11:57:02.833Z,1005.37
2019-06-02T11:58:02.866Z,1005.35
2019-06-02T11:59:02.902Z,1005.37
2019-06-02T12:00:02.966Z,1005.33
2019-06-02T12:01:03.043Z,1005.36
2019-06-02T12:02:06.204Z,1005.35
2019-06-02T12:03:03.042Z,1005.37
2019-06-02T12:04:03.078Z,1005.36
2019-06-02T12:05:03.107Z,1005.36
2019-06-02T12:06:03.141Z,1005.36
2019-06-02T12:07:03.176Z,1005.32
2019-06-02T12:08:03.225Z,1005.34
2019-06-02T12:09:03.252Z,1005.28